createdAt,value
2018-08-19T00:00:55.365Z,75.00
2018-08-19T00:03:24.990Z,75.00
2018-08-19T00:05:59.781Z,75.00
2018-08-19T00:08:29.411Z,75.00
2018-08-19T00:11:03.998Z,74.90
2018-08-19T00:13:33.714Z,74.80
2018-08-19T00:16:03.781Z,75.00
2018-08-19T00:18:34.960Z,74.50
2018-08-19T00:21:07.108Z,74.40
2018-08-19T00:23:52.968Z,74.50
2018-08-19T00:26:22.962Z,74.40
2018-08-19T00:28:52.646Z,74.30
2018-08-19T00:31:22.085Z,74.20
2018-08-19T00:33:52.357Z,74.20
2018-08-19T00:36:30.316Z,73.90
2018-08-19T00:39:00.085Z,73.80
2018-08-19T00:41:29.704Z,73.60
2018-08-19T00:43:59.339Z,73.40
2018-08-19T00:46:31.375Z,73.20
2018-08-19T00:49:01.631Z,73.00
2018-08-19T00:51:31.545Z,73.20
2018-08-19T00:54:00.930Z,73.00
2018-08-19T00:56:30.657Z,72.60
2018-08-19T00:59:00.623Z,72.60
2018-08-19T01:01:37.311Z,72.40
2018-08-19T01:04:09.528Z,72.60
2018-08-19T01:06:44.361Z,72.60
2018-08-19T01:09:14.520Z,72.60
2018-08-19T01:11:44.575Z,72.40
2018-08-19T01:14:15.540Z,72.50
2018-08-19T01:16:45.736Z,72.40
2018-08-19T01:19:16.312Z,72.30
2018-08-19T01:21:48.613Z,72.20
2018-08-19T01:24:18.522Z,72.00
2018-08-19T01:26:48.270Z,71.90
2018-08-19T01:29:39.147Z,71.80
2018-08-19T01:32:11.165Z,71.00
2018-08-19T01:34:43.503Z,71.30
2018-08-19T01:37:13.985Z,71.60
2018-08-19T01:39:43.521Z,71.30
2018-08-19T01:42:13.100Z,70.80
2018-08-19T01:44:43.521Z,70.80
2018-08-19T01:47:13.469Z,70.80
2018-08-19T01:49:43.117Z,70.30
2018-08-19T01:52:13.078Z,69.80
2018-08-19T01:54:42.561Z,69.90
2018-08-19T01:57:12.265Z,69.40
2018-08-19T01:59:41.994Z,69.70
2018-08-19T02:02:11.817Z,69.30
2018-08-19T02:04:56.733Z,68.70
2018-08-19T02:07:26.975Z,69.30
2018-08-19T02:10:03.148Z,69.10
2018-08-19T02:12:38.371Z,69.30
2018-08-19T02:15:09.004Z,69.40
2018-08-19T02:17:45.130Z,69.70
2018-08-19T02:20:15.068Z,69.10
2018-08-19T02:22:53.509Z,68.90
2018-08-19T02:25:23.640Z,68.50
2018-08-19T02:27:53.173Z,68.20
2018-08-19T02:30:22.540Z,68.90
2018-08-19T02:32:54.791Z,68.40
2018-08-19T02:35:24.469Z,68.50
2018-08-19T02:37:54.090Z,68.40
2018-08-19T02:40:29.229Z,68.50
2018-08-19T02:42:59.151Z,68.60
2018-08-19T02:45:29.495Z,68.50
2018-08-19T02:47:59.779Z,68.10
2018-08-19T02:50:29.555Z,68.90
2018-08-19T02:52:59.511Z,68.30
2018-08-19T02:55:29.689Z,68.10
2018-08-19T02:58:04.675Z,68.00
2018-08-19T03:00:34.780Z,67.90
2018-08-19T03:03:04.552Z,68.10
2018-08-19T03:05:34.345Z,67.70
2018-08-19T03:08:04.437Z,67.80
2018-08-19T03:10:33.752Z,67.60
2018-08-19T03:13:03.331Z,67.80
2018-08-19T03:15:33.449Z,67.90
2018-08-19T03:18:03.219Z,68.00
2018-08-19T03:20:32.751Z,67.70
2018-08-19T03:23:02.896Z,68.10
2018-08-19T03:25:32.597Z,68.00
2018-08-19T03:28:02.169Z,67.80
2018-08-19T03:30:32.279Z,67.50
2018-08-19T03:33:02.258Z,67.60
2018-08-19T03:35:31.957Z,67.70
2018-08-19T03:38:07.173Z,67.40
2018-08-19T03:40:36.730Z,67.20
2018-08-19T03:43:06.626Z,67.20
2018-08-19T03:45:36.264Z,67.30
2018-08-19T03:48:06.344Z,67.40
2018-08-19T03:50:37.801Z,67.30
2018-08-19T03:53:07.658Z,67.60
2018-08-19T03:55:39.210Z,67.50
2018-08-19T03:58:11.122Z,67.60
2018-08-19T04:00:44.331Z,67.80
2018-08-19T04:03:20.827Z,67.60
2018-08-19T04:05:58.078Z,67.70
2018-08-19T04:09:00.542Z,67.90
2018-08-19T04:11:30.514Z,67.30
2018-08-19T04:14:00.328Z,67.60
2018-08-19T04:16:30.177Z,67.60
2018-08-19T04:19:06.715Z,67.40
2018-08-19T04:21:36.418Z,67.40
2018-08-19T04:24:06.380Z,67.80
2018-08-19T04:26:36.088Z,68.30
2018-08-19T04:29:10.975Z,68.10
2018-08-19T04:31:40.824Z,68.10
2018-08-19T04:34:11.078Z,68.20
2018-08-19T04:36:41.567Z,68.00
2018-08-19T04:39:11.299Z,68.20
2018-08-19T04:41:40.920Z,68.80
2018-08-19T04:44:10.675Z,68.50
2018-08-19T04:46:40.218Z,68.30
2018-08-19T04:49:10.251Z,68.50
2018-08-19T04:51:41.632Z,68.40
2018-08-19T04:54:11.421Z,68.60
2018-08-19T04:56:40.908Z,68.90
2018-08-19T04:59:10.968Z,68.90
2018-08-19T05:01:40.566Z,69.10
2018-08-19T05:04:10.026Z,68.90
2018-08-19T05:06:39.798Z,69.00
2018-08-19T05:09:10.793Z,69.00
2018-08-19T05:11:40.605Z,68.70
2018-08-19T05:14:10.116Z,69.00
2018-08-19T05:16:39.864Z,68.90
2018-08-19T05:19:09.978Z,68.90
2018-08-19T05:21:39.827Z,68.80
2018-08-19T05:24:09.356Z,69.00
2018-08-19T05:26:39.319Z,68.60
2018-08-19T05:29:12.294Z,68.60
2018-08-19T05:31:48.230Z,68.70
2018-08-19T05:34:22.207Z,68.30
2018-08-19T05:36:52.344Z,68.40
2018-08-19T05:39:22.345Z,68.70
2018-08-19T05:42:03.728Z,68.20
2018-08-19T05:44:35.743Z,68.70
2018-08-19T05:47:08.265Z,68.20
2018-08-19T05:49:40.433Z,68.00
2018-08-19T05:52:15.680Z,67.80
2018-08-19T05:54:50.711Z,67.50
2018-08-19T05:57:20.829Z,68.00
2018-08-19T05:59:51.507Z,68.30
2018-08-19T06:02:28.643Z,68.00
2018-08-19T06:04:58.607Z,68.20
2018-08-19T06:07:28.434Z,68.30
2018-08-19T06:09:58.362Z,67.80
2018-08-19T06:12:27.834Z,67.50
2018-08-19T06:15:00.537Z,67.40
2018-08-19T06:17:30.106Z,67.60
2018-08-19T06:19:59.778Z,66.80
2018-08-19T06:22:34.492Z,67.00
2018-08-19T06:25:04.802Z,66.60
2018-08-19T06:27:40.261Z,66.30
2018-08-19T06:30:10.407Z,66.70
2018-08-19T06:32:40.109Z,66.60
2018-08-19T06:35:09.753Z,66.60
2018-08-19T06:37:39.734Z,67.10
2018-08-19T06:40:12.415Z,66.30
2018-08-19T06:42:42.179Z,66.60
2018-08-19T06:45:12.855Z,66.00
2018-08-19T06:47:42.498Z,66.70
2018-08-19T06:50:20.340Z,66.30
2018-08-19T06:52:50.524Z,66.40
2018-08-19T06:55:20.576Z,65.90
2018-08-19T06:57:50.460Z,65.20
2018-08-19T07:00:24.457Z,64.00
2018-08-19T07:02:54.268Z,64.50
2018-08-19T07:05:25.024Z,64.70
2018-08-19T07:07:55.006Z,65.00
2018-08-19T07:10:30.607Z,64.40
2018-08-19T07:13:10.691Z,64.70
2018-08-19T07:15:41.813Z,65.30
2018-08-19T07:18:13.607Z,65.00
2018-08-19T07:20:44.101Z,64.90
2018-08-19T07:23:14.142Z,64.60
2018-08-19T07:25:45.336Z,64.70
2018-08-19T07:28:16.472Z,65.30
2018-08-19T07:30:46.371Z,64.40
2018-08-19T07:33:15.806Z,64.30
2018-08-19T07:35:45.880Z,64.50
2018-08-19T07:38:15.515Z,64.70
2018-08-19T07:40:44.986Z,64.30
2018-08-19T07:43:15.035Z,63.80
2018-08-19T07:45:45.050Z,62.60
2018-08-19T07:48:14.730Z,62.60
2018-08-19T07:50:44.818Z,62.30
2018-08-19T07:53:14.613Z,62.40
2018-08-19T07:55:43.998Z,63.10
2018-08-19T07:58:13.871Z,62.70
2018-08-19T08:00:43.597Z,61.90
2018-08-19T08:03:12.935Z,62.00
2018-08-19T08:05:49.444Z,61.00
2018-08-19T08:08:19.344Z,60.30
2018-08-19T08:10:49.235Z,59.60
2018-08-19T08:13:19.657Z,59.30
2018-08-19T08:15:53.440Z,59.20
2018-08-19T08:18:23.075Z,58.80
2018-08-19T08:21:05.010Z,60.50
2018-08-19T08:23:34.618Z,60.00
2018-08-19T08:26:05.912Z,60.10
2018-08-19T08:28:35.566Z,60.00
2018-08-19T08:31:12.219Z,61.00
2018-08-19T08:33:42.165Z,59.10
2018-08-19T08:36:26.776Z,58.90
2018-08-19T08:38:56.241Z,59.50
2018-08-19T08:41:25.937Z,59.20
2018-08-19T08:43:56.001Z,59.40
2018-08-19T08:46:25.707Z,58.70
2018-08-19T08:48:55.478Z,59.20
2018-08-19T08:51:25.752Z,59.10
2018-08-19T08:53:56.732Z,58.80
2018-08-19T08:56:26.805Z,59.00
2018-08-19T08:58:56.496Z,58.20
2018-08-19T09:01:26.164Z,56.80
2018-08-19T09:03:56.176Z,57.20
2018-08-19T09:06:29.377Z,56.80
2018-08-19T09:08:59.518Z,56.70
2018-08-19T09:11:29.355Z,56.80
2018-08-19T09:13:59.578Z,57.40
2018-08-19T09:16:29.311Z,57.30
2018-08-19T09:18:59.004Z,57.90
2018-08-19T09:21:28.659Z,56.70
2018-08-19T09:23:58.889Z,57.00
2018-08-19T09:26:28.641Z,56.10
2018-08-19T09:28:58.065Z,57.10
2018-08-19T09:31:28.163Z,57.30
2018-08-19T09:33:57.770Z,56.00
2018-08-19T09:36:27.482Z,55.80
2018-08-19T09:38:57.555Z,55.50
2018-08-19T09:41:27.316Z,55.50
2018-08-19T09:43:56.913Z,56.00
2018-08-19T09:46:26.982Z,56.50
2018-08-19T09:48:56.591Z,57.90
2018-08-19T09:51:26.371Z,55.40
2018-08-19T09:53:56.317Z,56.10
2018-08-19T09:56:40.566Z,55.50
2018-08-19T09:59:10.584Z,56.60
2018-08-19T10:01:41.966Z,56.40
2018-08-19T10:04:16.890Z,54.90
2018-08-19T10:06:46.680Z,55.30
2018-08-19T10:09:16.865Z,55.10
2018-08-19T10:11:46.732Z,54.40
2018-08-19T10:14:16.576Z,54.80
2018-08-19T10:16:47.656Z,54.10
2018-08-19T10:19:17.391Z,54.20
2018-08-19T10:21:47.184Z,53.00
2018-08-19T10:24:21.031Z,54.30
2018-08-19T10:26:50.641Z,53.00
2018-08-19T10:29:20.361Z,53.20
2018-08-19T10:32:05.292Z,55.20
2018-08-19T10:34:36.277Z,53.30
2018-08-19T10:37:06.577Z,52.80
2018-08-19T10:39:35.958Z,54.00
2018-08-19T10:42:18.454Z,53.20
2018-08-19T10:44:50.741Z,53.10
2018-08-19T10:47:20.946Z,52.50
2018-08-19T10:49:56.902Z,52.10
2018-08-19T10:52:27.880Z,51.70
2018-08-19T10:54:58.718Z,52.00
2018-08-19T10:57:28.388Z,50.70
2018-08-19T10:59:59.229Z,51.20
2018-08-19T11:02:28.733Z,49.60
2018-08-19T11:05:01.377Z,50.00
2018-08-19T11:07:31.083Z,50.20
2018-08-19T11:10:13.309Z,50.40
2018-08-19T11:12:43.500Z,51.80
2018-08-19T11:15:27.887Z,49.30
2018-08-19T11:17:58.356Z,50.50
2018-08-19T11:20:39.001Z,51.10
2018-08-19T11:23:13.872Z,51.80
2018-08-19T11:25:43.368Z,51.70
2018-08-19T11:28:24.446Z,52.50
2018-08-19T11:30:54.125Z,49.40
2018-08-19T11:33:39.273Z,49.40
2018-08-19T11:36:09.654Z,49.40
2018-08-19T11:38:39.642Z,49.20
2018-08-19T11:41:10.233Z,47.10
2018-08-19T11:43:44.022Z,47.90
2018-08-19T11:46:13.824Z,47.80
2018-08-19T11:48:44.771Z,49.80
2018-08-19T11:51:14.337Z,49.50
2018-08-19T11:53:44.099Z,49.80
2018-08-19T11:56:14.064Z,50.40
2018-08-19T11:58:47.230Z,48.50
2018-08-19T12:01:21.443Z,48.00
2018-08-19T12:04:03.335Z,47.40
2018-08-19T12:06:34.604Z,47.50
2018-08-19T12:09:06.167Z,46.80
2018-08-19T12:11:43.270Z,47.40
2018-08-19T12:14:14.769Z,48.70
2018-08-19T12:16:50.397Z,47.20
2018-08-19T12:19:23.047Z,47.80
2018-08-19T12:21:56.922Z,48.00
2018-08-19T12:24:36.397Z,46.00
2018-08-19T12:27:07.920Z,46.60
2018-08-19T12:29:38.628Z,45.00
2018-08-19T12:32:22.033Z,47.00
2018-08-19T12:34:58.117Z,47.00
2018-08-19T12:40:32.263Z,47.70
2018-08-19T12:43:02.107Z,47.30
2018-08-19T12:45:31.511Z,46.90
2018-08-19T12:48:01.689Z,48.20
2018-08-19T12:50:31.230Z,47.90
2018-08-19T12:53:00.851Z,46.40
2018-08-19T12:55:30.566Z,45.40
2018-08-19T12:58:05.450Z,45.10
2018-08-19T13:00:35.003Z,44.50
2018-08-19T13:03:04.788Z,45.30
2018-08-19T13:05:34.525Z,46.70
2018-08-19T13:08:04.192Z,47.60
2018-08-19T13:10:39.174Z,47.00
2018-08-19T13:13:09.073Z,46.30
2018-08-19T13:15:38.619Z,45.50
2018-08-19T13:18:08.171Z,45.40
2018-08-19T13:20:37.614Z,46.10
2018-08-19T13:23:07.411Z,46.50
2018-08-19T13:25:36.974Z,46.60
2018-08-19T13:28:06.855Z,46.80
2018-08-19T13:30:36.900Z,44.80
2018-08-19T13:33:06.609Z,46.50
2018-08-19T13:35:36.456Z,45.30
2018-08-19T13:38:06.366Z,44.50
2018-08-19T13:40:35.969Z,44.70
2018-08-19T13:43:06.250Z,44.20
2018-08-19T13:45:35.822Z,44.80
2018-08-19T13:48:05.826Z,43.90
2018-08-19T13:50:35.749Z,44.40
2018-08-19T13:53:05.745Z,43.90
2018-08-19T13:55:35.392Z,43.00
2018-08-19T13:58:05.183Z,44.80
2018-08-19T14:00:34.743Z,46.60
2018-08-19T14:03:04.342Z,45.50
2018-08-19T14:05:34.322Z,45.20
2018-08-19T14:08:04.201Z,43.40
2018-08-19T14:10:33.757Z,44.40
2018-08-19T14:13:03.650Z,45.60
2018-08-19T14:15:33.347Z,43.20
2018-08-19T14:18:03.330Z,43.20
2018-08-19T14:20:33.252Z,44.30
2018-08-19T14:23:02.924Z,45.00
2018-08-19T14:25:32.569Z,43.80
2018-08-19T14:28:02.468Z,44.90
2018-08-19T14:30:32.394Z,44.80
2018-08-19T14:33:02.396Z,44.20
2018-08-19T14:35:32.522Z,45.20
2018-08-19T14:38:02.326Z,45.70
2018-08-19T14:40:32.095Z,46.60
2018-08-19T14:43:01.867Z,48.00
2018-08-19T14:45:31.460Z,46.20
2018-08-19T14:48:01.368Z,46.50
2018-08-19T14:50:31.766Z,47.40
2018-08-19T14:53:01.606Z,47.10
2018-08-19T14:55:31.912Z,46.50
2018-08-19T14:58:02.204Z,46.90
2018-08-19T15:00:31.668Z,46.90
2018-08-19T15:03:01.310Z,47.90
2018-08-19T15:05:31.415Z,48.60
2018-08-19T15:08:07.138Z,48.10
2018-08-19T15:10:37.612Z,48.40
2018-08-19T15:13:07.455Z,49.00
2018-08-19T15:15:37.145Z,49.00
2018-08-19T15:18:07.210Z,49.50
2018-08-19T15:20:37.436Z,49.60
2018-08-19T15:23:18.591Z,48.80
2018-08-19T15:25:48.491Z,48.60
2018-08-19T15:28:19.154Z,48.40
2018-08-19T15:30:49.142Z,49.70
2018-08-19T15:33:18.912Z,49.20
2018-08-19T15:35:49.033Z,49.50
2018-08-19T15:38:18.719Z,49.60
2018-08-19T15:40:49.516Z,49.40
2018-08-19T15:43:22.037Z,49.00
2018-08-19T15:45:52.595Z,49.00
2018-08-19T15:48:23.079Z,49.10
2018-08-19T15:50:57.576Z,49.60
2018-08-19T15:53:27.875Z,49.30
2018-08-19T15:55:57.965Z,49.50
2018-08-19T15:58:29.515Z,49.40
2018-08-19T16:00:59.693Z,50.00
2018-08-19T16:03:29.637Z,49.70
2018-08-19T16:05:59.540Z,49.40
2018-08-19T16:08:29.249Z,49.10
2018-08-19T16:10:59.639Z,49.20
2018-08-19T16:13:29.710Z,49.60
2018-08-19T16:15:59.890Z,49.50
2018-08-19T16:18:30.122Z,49.80
2018-08-19T16:21:03.538Z,50.60
2018-08-19T16:23:33.454Z,50.10
2018-08-19T16:26:04.899Z,49.80
2018-08-19T16:28:35.128Z,50.20
2018-08-19T16:31:05.756Z,50.10
2018-08-19T16:33:36.882Z,50.00
2018-08-19T16:36:06.766Z,49.80
2018-08-19T16:38:36.896Z,49.50
2018-08-19T16:41:06.966Z,49.10
2018-08-19T16:43:36.669Z,49.00
2018-08-19T16:46:06.334Z,49.30
2018-08-19T16:48:36.595Z,49.30
2018-08-19T16:51:06.286Z,49.70
2018-08-19T16:53:36.117Z,49.80
2018-08-19T16:56:06.744Z,49.70
2018-08-19T16:58:36.849Z,49.60
2018-08-19T17:01:06.465Z,49.80
2018-08-19T17:03:38.548Z,49.90
2018-08-19T17:06:13.562Z,50.30
2018-08-19T17:08:43.823Z,50.80
2018-08-19T17:11:14.541Z,50.90
2018-08-19T17:13:44.135Z,50.90
2018-08-19T17:16:14.183Z,51.50
2018-08-19T17:18:44.103Z,50.90
2018-08-19T17:21:14.760Z,51.20
2018-08-19T17:23:48.579Z,49.90
2018-08-19T17:26:20.128Z,50.20
2018-08-19T17:28:50.080Z,50.60
2018-08-19T17:31:20.158Z,50.80
2018-08-19T17:33:49.832Z,51.40
2018-08-19T17:36:27.138Z,50.40
2018-08-19T17:38:57.306Z,50.20
2018-08-19T17:41:27.657Z,51.20
2018-08-19T17:43:57.398Z,51.50
2018-08-19T17:46:27.066Z,50.80
2018-08-19T17:48:57.220Z,51.10
2018-08-19T17:51:33.559Z,51.90
2018-08-19T17:54:03.834Z,52.10
2018-08-19T17:56:33.699Z,51.90
2018-08-19T17:59:06.204Z,52.40
2018-08-19T18:01:40.158Z,52.60
2018-08-19T18:04:10.007Z,52.80
2018-08-19T18:06:39.817Z,52.80
2018-08-19T18:11:41.265Z,53.60
2018-08-19T18:14:11.129Z,52.70
2018-08-19T18:16:41.299Z,53.10
2018-08-19T18:19:10.778Z,53.00
2018-08-19T18:21:41.346Z,53.20
2018-08-19T18:24:11.519Z,53.20
2018-08-19T18:26:41.490Z,52.80
2018-08-19T18:29:11.285Z,52.60
2018-08-19T18:31:41.240Z,51.80
2018-08-19T18:34:10.762Z,51.80
2018-08-19T18:36:40.431Z,52.60
2018-08-19T18:39:11.824Z,51.40
2018-08-19T18:41:44.448Z,51.40
2018-08-19T18:44:14.462Z,51.20
2018-08-19T18:46:44.139Z,52.60
2018-08-19T18:49:14.508Z,52.00
2018-08-19T18:51:46.485Z,52.80
2018-08-19T18:54:32.109Z,52.70
2018-08-19T18:57:05.142Z,53.10
2018-08-19T18:59:35.475Z,52.60
2018-08-19T19:02:06.646Z,52.40
2018-08-19T19:04:36.729Z,52.00
2018-08-19T19:07:06.852Z,52.90
2018-08-19T19:09:41.786Z,53.20
2018-08-19T19:12:11.655Z,53.80
2018-08-19T19:14:41.259Z,53.90
2018-08-19T19:17:10.842Z,53.80
2018-08-19T19:19:45.596Z,54.00
2018-08-19T19:22:15.638Z,54.00
2018-08-19T19:24:45.223Z,54.00
2018-08-19T19:27:15.557Z,53.70
2018-08-19T19:29:50.839Z,54.70
2018-08-19T19:32:27.788Z,53.40
2018-08-19T19:35:06.220Z,53.50
2018-08-19T19:37:37.192Z,53.20
2018-08-19T19:40:10.254Z,54.00
2018-08-19T19:42:39.792Z,54.30
2018-08-19T19:45:09.538Z,54.60
2018-08-19T19:47:39.536Z,53.60
2018-08-19T19:50:09.850Z,54.00
2018-08-19T19:52:44.970Z,53.90
2018-08-19T19:55:14.478Z,53.80
2018-08-19T19:57:44.662Z,53.90
2018-08-19T20:00:14.741Z,54.80
2018-08-19T20:02:44.500Z,54.60
2018-08-19T20:05:19.443Z,54.70
2018-08-19T20:07:49.359Z,54.50
2018-08-19T20:10:29.452Z,55.00
2018-08-19T20:12:59.621Z,55.20
2018-08-19T20:15:29.446Z,55.30
2018-08-19T20:17:59.502Z,54.70
2018-08-19T20:20:31.381Z,54.00
2018-08-19T20:23:02.047Z,54.50
2018-08-19T20:25:31.850Z,55.10
2018-08-19T20:28:06.574Z,54.60
2018-08-19T20:30:36.974Z,55.00
2018-08-19T20:33:07.270Z,54.70
2018-08-19T20:35:37.052Z,54.80
2018-08-19T20:38:07.155Z,55.10
2018-08-19T20:40:37.128Z,55.30
2018-08-19T20:43:11.242Z,55.50
2018-08-19T20:45:41.315Z,55.60
2018-08-19T20:48:11.441Z,55.20
2018-08-19T20:50:41.252Z,55.60
2018-08-19T20:53:11.381Z,55.40
2018-08-19T20:55:41.129Z,56.10
2018-08-19T20:58:10.695Z,56.30
2018-08-19T21:00:40.858Z,56.20
2018-08-19T21:03:11.018Z,56.10
2018-08-19T21:05:40.709Z,55.80
2018-08-19T21:08:14.465Z,55.60
2018-08-19T21:10:44.917Z,56.00
2018-08-19T21:13:15.803Z,56.30
2018-08-19T21:15:46.698Z,56.50
2018-08-19T21:18:16.600Z,56.70
2018-08-19T21:20:46.073Z,56.20
2018-08-19T21:23:15.819Z,56.50
2018-08-19T21:25:51.672Z,56.60
2018-08-19T21:28:21.690Z,56.50
2018-08-19T21:30:51.325Z,56.10
2018-08-19T21:33:21.014Z,56.80
2018-08-19T21:35:52.510Z,56.80
2018-08-19T21:38:22.217Z,55.90
2018-08-19T21:40:57.049Z,55.40
2018-08-19T21:43:30.647Z,55.50
2018-08-19T21:46:00.976Z,55.70
2018-08-19T21:48:30.880Z,56.00
2018-08-19T21:51:00.568Z,56.30
2018-08-19T21:53:30.368Z,56.10
2018-08-19T21:56:00.186Z,56.40
2018-08-19T21:58:29.910Z,56.30
2018-08-19T22:01:01.769Z,56.50
2018-08-19T22:03:36.549Z,57.10
2018-08-19T22:06:08.646Z,57.30
2018-08-19T22:08:38.568Z,56.60
2018-08-19T22:11:08.272Z,57.10
2018-08-19T22:13:38.493Z,56.80
2018-08-19T22:16:08.576Z,56.20
2018-08-19T22:18:38.494Z,56.60
2018-08-19T22:21:24.803Z,56.80
2018-08-19T22:23:56.625Z,57.20
2018-08-19T22:26:26.857Z,57.50
2018-08-19T22:29:10.211Z,57.90
2018-08-19T22:31:40.080Z,58.70
2018-08-19T22:34:09.684Z,58.30
2018-08-19T22:36:39.243Z,58.30
2018-08-19T22:39:10.760Z,58.10
2018-08-19T22:41:41.316Z,57.90
2018-08-19T22:44:11.366Z,58.40
2018-08-19T22:46:41.458Z,58.90
2018-08-19T22:49:11.343Z,59.30
2018-08-19T22:51:41.582Z,59.30
2018-08-19T22:54:11.690Z,59.40
2018-08-19T22:56:41.727Z,59.40
2018-08-19T22:59:11.543Z,59.50
2018-08-19T23:01:46.605Z,59.60
2018-08-19T23:04:16.566Z,59.50
2018-08-19T23:06:46.202Z,59.80
2018-08-19T23:09:15.758Z,59.60
2018-08-19T23:11:47.734Z,59.70
2018-08-19T23:14:28.237Z,59.80
2018-08-19T23:16:58.173Z,60.40
2018-08-19T23:19:27.809Z,60.00
2018-08-19T23:21:57.448Z,59.20
2018-08-19T23:24:27.339Z,59.00
2018-08-19T23:26:56.926Z,59.00
2018-08-19T23:29:26.539Z,59.10
2018-08-19T23:31:56.332Z,59.50
2018-08-19T23:34:25.937Z,59.60
2018-08-19T23:36:55.573Z,60.60
2018-08-19T23:39:25.609Z,60.10
2018-08-19T23:41:55.139Z,60.80
2018-08-19T23:44:24.895Z,61.70
2018-08-19T23:46:55.010Z,61.70
2018-08-19T23:49:24.477Z,62.10
2018-08-19T23:51:54.288Z,62.00
2018-08-19T23:54:24.495Z,61.90
2018-08-19T23:56:54.174Z,61.90
2018-08-19T23:59:27.611Z,61.60
